sensor_id;sensor_type;location;lat;lon;timestamp;pressure;altitude;pressure_sealevel;temperature;humidity
84308;BME280;74486;52.070;5.128;2024-02-15T00:00:45;101701.28;;;11.69;100.00
84308;BME280;74486;52.070;5.128;2024-02-15T00:03:11;101701.19;;;11.67;100.00
84308;BME280;74486;52.070;5.128;2024-02-15T00:05:36;101703.75;;;11.66;100.00
84308;BME280;74486;52.070;5.128;2024-02-15T00:08:02;101704.56;;;11.65;100.00
84308;BME280;74486;52.070;5.128;2024-02-15T00:10:28;101694.78;;;11.62;100.00
84308;BME280;74486;52.070;5.128;2024-02-15T00:12:53;101701.59;;;11.59;100.00
84308;BME280;74486;52.070;5.128;2024-02-15T00:15:20;101693.63;;;11.57;100.00
84308;BME280;74486;52.070;5.128;2024-02-15T00:17:46;101699.13;;;11.62;100.00
84308;BME280;74486;52.070;5.128;2024-02-15T00:20:11;101688.84;;;11.65;100.00
84308;BME280;74486;52.070;5.128;2024-02-15T00:22:37;101692.69;;;11.71;100.00
84308;BME280;74486;52.070;5.128;2024-02-15T00:25:03;101695.06;;;11.67;100.00
84308;BME280;74486;52.070;5.128;2024-02-15T00:27:29;101691.72;;;11.69;100.00
84308;BME280;74486;52.070;5.128;2024-02-15T00:29:54;101694.91;;;11.64;100.00
84308;BME280;74486;52.070;5.128;2024-02-15T00:32:21;101696.88;;;11.68;100.00
84308;BME280;74486;52.070;5.128;2024-02-15T00:34:46;101691.56;;;11.66;100.00
84308;BME280;74486;52.070;5.128;2024-02-15T00:37:12;101690.72;;;11.67;100.00
84308;BME280;74486;52.070;5.128;2024-02-15T00:39:37;101688.09;;;11.67;100.00
84308;BME280;74486;52.070;5.128;2024-02-15T00:42:03;101686.94;;;11.62;100.00
84308;BME280;74486;52.070;5.128;2024-02-15T00:44:29;101693.28;;;11.66;100.00
84308;BME280;74486;52.070;5.128;2024-02-15T00:46:54;101688.84;;;11.65;100.00
84308;BME280;74486;52.070;5.128;2024-02-15T00:49:21;101681.09;;;11.66;100.00
84308;BME280;74486;52.070;5.128;2024-02-15T00:51:47;101680.00;;;11.63;100.00
84308;BME280;74486;52.070;5.128;2024-02-15T00:54:12;101674.59;;;11.60;100.00
84308;BME280;74486;52.070;5.128;2024-02-15T00:56:38;101677.47;;;11.64;100.00
84308;BME280;74486;52.070;5.128;2024-02-15T00:59:03;101666.44;;;11.70;100.00
84308;BME280;74486;52.070;5.128;2024-02-15T01:01:29;101676.97;;;11.71;100.00
84308;BME280;74486;52.070;5.128;2024-02-15T01:03:54;101673.28;;;11.68;100.00
84308;BME280;74486;52.070;5.128;2024-02-15T01:06:21;101673.28;;;11.68;100.00
84308;BME280;74486;52.070;5.128;2024-02-15T01:08:47;101674.84;;;11.64;100.00
84308;BME280;74486;52.070;5.128;2024-02-15T01:11:12;101672.38;;;11.67;100.00
84308;BME280;74486;52.070;5.128;2024-02-15T01:13:38;101673.47;;;11.71;100.00
84308;BME280;74486;52.070;5.128;2024-02-15T01:16:04;101674.47;;;11.73;100.00
84308;BME280;74486;52.070;5.128;2024-02-15T01:18:29;101662.38;;;11.75;100.00
84308;BME280;74486;52.070;5.128;2024-02-15T01:20:55;101672.94;;;11.76;100.00
84308;BME280;74486;52.070;5.128;2024-02-15T01:23:22;101666.63;;;11.73;100.00
84308;BME280;74486;52.070;5.128;2024-02-15T01:25:47;101668.69;;;11.64;100.00
84308;BME280;74486;52.070;5.128;2024-02-15T01:28:12;101665.38;;;11.66;100.00
84308;BME280;74486;52.070;5.128;2024-02-15T01:30:38;101658.56;;;11.70;100.00
84308;BME280;74486;52.070;5.128;2024-02-15T01:33:04;101666.09;;;11.64;100.00
84308;BME280;74486;52.070;5.128;2024-02-15T01:35:29;101661.09;;;11.68;100.00
84308;BME280;74486;52.070;5.128;2024-02-15T01:37:54;101659.22;;;11.66;100.00
84308;BME280;74486;52.070;5.128;2024-02-15T01:40:21;101669.72;;;11.66;100.00
84308;BME280;74486;52.070;5.128;2024-02-15T01:42:47;101666.50;;;11.71;100.00
84308;BME280;74486;52.070;5.128;2024-02-15T01:45:12;101663.09;;;11.72;100.00
84308;BME280;74486;52.070;5.128;2024-02-15T01:47:38;101657.06;;;11.73;100.00
84308;BME280;74486;52.070;5.128;2024-02-15T01:50:04;101658.22;;;11.79;100.00
84308;BME280;74486;52.070;5.128;2024-02-15T01:52:30;101657.97;;;11.74;100.00
84308;BME280;74486;52.070;5.128;2024-02-15T01:54:57;101643.25;;;11.76;100.00
84308;BME280;74486;52.070;5.128;2024-02-15T01:57:24;101639.53;;;11.72;100.00
84308;BME280;74486;52.070;5.128;2024-02-15T01:59:50;101643.84;;;11.72;100.00
84308;BME280;74486;52.070;5.128;2024-02-15T02:02:16;101637.81;;;11.73;100.00
84308;BME280;74486;52.070;5.128;2024-02-15T02:04:45;101638.00;;;11.76;100.00
84308;BME280;74486;52.070;5.128;2024-02-15T02:07:10;101639.63;;;11.74;100.00
84308;BME280;74486;52.070;5.128;2024-02-15T02:09:36;101631.47;;;11.69;100.00
84308;BME280;74486;52.070;5.128;2024-02-15T02:12:01;101641.50;;;11.62;100.00
84308;BME280;74486;52.070;5.128;2024-02-15T02:14:28;101633.59;;;11.60;100.00
84308;BME280;74486;52.070;5.128;2024-02-15T02:16:54;101632.66;;;11.44;100.00
84308;BME280;74486;52.070;5.128;2024-02-15T02:19:19;101632.66;;;11.44;100.00
84308;BME280;74486;52.070;5.128;2024-02-15T02:21:45;101631.41;;;11.37;100.00
84308;BME280;74486;52.070;5.128;2024-02-15T02:24:13;101626.25;;;11.39;100.00
84308;BME280;74486;52.070;5.128;2024-02-15T02:26:40;101623.56;;;11.37;100.00
84308;BME280;74486;52.070;5.128;2024-02-15T02:29:05;101627.25;;;11.41;100.00
84308;BME280;74486;52.070;5.128;2024-02-15T02:31:32;101628.88;;;11.39;100.00
84308;BME280;74486;52.070;5.128;2024-02-15T02:33:58;101622.56;;;11.35;100.00
84308;BME280;74486;52.070;5.128;2024-02-15T02:36:23;101623.56;;;11.37;100.00
84308;BME280;74486;52.070;5.128;2024-02-15T02:38:49;101625.19;;;11.35;100.00
84308;BME280;74486;52.070;5.128;2024-02-15T02:41:14;101617.69;;;11.41;100.00
84308;BME280;74486;52.070;5.128;2024-02-15T02:43:41;101616.28;;;11.48;100.00
84308;BME280;74486;52.070;5.128;2024-02-15T02:46:06;101614.31;;;11.44;100.00
84308;BME280;74486;52.070;5.128;2024-02-15T02:48:35;101608.63;;;11.51;100.00
84308;BME280;74486;52.070;5.128;2024-02-15T02:51:00;101614.25;;;11.42;100.00
84308;BME280;74486;52.070;5.128;2024-02-15T02:53:25;101608.38;;;11.46;100.00
84308;BME280;74486;52.070;5.128;2024-02-15T02:55:51;101616.22;;;11.46;100.00
84308;BME280;74486;52.070;5.128;2024-02-15T02:58:16;101617.75;;;11.43;100.00
84308;BME280;74486;52.070;5.128;2024-02-15T03:00:43;101610.72;;;11.42;100.00
84308;BME280;74486;52.070;5.128;2024-02-15T03:03:09;101609.84;;;11.41;100.00
84308;BME280;74486;52.070;5.128;2024-02-15T03:05:34;101611.00;;;11.46;100.00
84308;BME280;74486;52.070;5.128;2024-02-15T03:08:00;101609.72;;;11.40;100.00
84308;BME280;74486;52.070;5.128;2024-02-15T03:10:25;101602.22;;;11.46;100.00
84308;BME280;74486;52.070;5.128;2024-02-15T03:12:51;101605.66;;;11.45;100.00
84308;BME280;74486;52.070;5.128;2024-02-15T03:15:17;101600.50;;;11.46;100.00
84308;BME280;74486;52.070;5.128;2024-02-15T03:17:46;101610.91;;;11.45;100.00
84308;BME280;74486;52.070;5.128;2024-02-15T03:20:12;101605.75;;;11.46;100.00
84308;BME280;74486;52.070;5.128;2024-02-15T03:22:38;101594.38;;;11.46;100.00
84308;BME280;74486;52.070;5.128;2024-02-15T03:25:04;101611.25;;;11.51;100.00
84308;BME280;74486;52.070;5.128;2024-02-15T03:27:30;101606.56;;;11.45;100.00
84308;BME280;74486;52.070;5.128;2024-02-15T03:29:55;101607.47;;;11.46;100.00
84308;BME280;74486;52.070;5.128;2024-02-15T03:32:21;101595.44;;;11.49;100.00
84308;BME280;74486;52.070;5.128;2024-02-15T03:34:48;101600.56;;;11.48;100.00
84308;BME280;74486;52.070;5.128;2024-02-15T03:37:13;101603.38;;;11.51;100.00
84308;BME280;74486;52.070;5.128;2024-02-15T03:39:39;101613.75;;;11.49;100.00
84308;BME280;74486;52.070;5.128;2024-02-15T03:42:04;101599.50;;;11.44;100.00
84308;BME280;74486;52.070;5.128;2024-02-15T03:44:29;101595.09;;;11.43;100.00
84308;BME280;74486;52.070;5.128;2024-02-15T03:46:55;101590.53;;;11.55;100.00
84308;BME280;74486;52.070;5.128;2024-02-15T03:49:21;101599.63;;;11.46;100.00
84308;BME280;74486;52.070;5.128;2024-02-15T03:51:48;101593.72;;;11.50;100.00
84308;BME280;74486;52.070;5.128;2024-02-15T03:54:13;101593.38;;;11.44;100.00
84308;BME280;74486;52.070;5.128;2024-02-15T03:56:46;101593.56;;;11.47;100.00
84308;BME280;74486;52.070;5.128;2024-02-15T03:59:11;101594.19;;;11.43;100.00
84308;BME280;74486;52.070;5.128;2024-02-15T04:01:37;101601.16;;;11.42;100.00
84308;BME280;74486;52.070;5.128;2024-02-15T04:04:03;101589.03;;;11.44;100.00
84308;BME280;74486;52.070;5.128;2024-02-15T04:06:28;101593.31;;;11.42;100.00
84308;BME280;74486;52.070;5.128;2024-02-15T04:08:55;101588.69;;;11.38;100.00
84308;BME280;74486;52.070;5.128;2024-02-15T04:11:20;101593.78;;;11.35;100.00
84308;BME280;74486;52.070;5.128;2024-02-15T04:13:46;101598.19;;;11.36;100.00
84308;BME280;74486;52.070;5.128;2024-02-15T04:16:11;101593.78;;;11.35;100.00
84308;BME280;74486;52.070;5.128;2024-02-15T04:18:37;101582.41;;;11.34;100.00
84308;BME280;74486;52.070;5.128;2024-02-15T04:21:02;101579.78;;;11.34;100.00
84308;BME280;74486;52.070;5.128;2024-02-15T04:23:28;101587.53;;;11.33;100.00
84308;BME280;74486;52.070;5.128;2024-02-15T04:25:55;101583.31;;;11.35;100.00
84308;BME280;74486;52.070;5.128;2024-02-15T04:28:20;101586.91;;;11.37;100.00
84308;BME280;74486;52.070;5.128;2024-02-15T04:30:45;101587.63;;;11.34;100.00
84308;BME280;74486;52.070;5.128;2024-02-15T04:33:11;101574.63;;;11.36;100.00
84308;BME280;74486;52.070;5.128;2024-02-15T04:35:36;101574.44;;;11.33;100.00
84308;BME280;74486;52.070;5.128;2024-02-15T04:38:02;101572.59;;;11.30;100.00
84308;BME280;74486;52.070;5.128;2024-02-15T04:40:27;101573.22;;;11.26;100.00
84308;BME280;74486;52.070;5.128;2024-02-15T04:42:54;101578.28;;;11.23;100.00
84308;BME280;74486;52.070;5.128;2024-02-15T04:45:20;101581.00;;;11.25;100.00
84308;BME280;74486;52.070;5.128;2024-02-15T04:47:45;101578.53;;;11.28;100.00
84308;BME280;74486;52.070;5.128;2024-02-15T04:50:11;101567.25;;;11.29;100.00
84308;BME280;74486;52.070;5.128;2024-02-15T04:52:36;101563.97;;;11.33;100.00
84308;BME280;74486;52.070;5.128;2024-02-15T04:55:02;101563.81;;;11.30;100.00
84308;BME280;74486;52.070;5.128;2024-02-15T04:57:28;101565.72;;;11.32;100.00
84308;BME280;74486;52.070;5.128;2024-02-15T04:59:54;101564.81;;;11.32;100.00
84308;BME280;74486;52.070;5.128;2024-02-15T05:02:20;101565.78;;;11.34;100.00
84308;BME280;74486;52.070;5.128;2024-02-15T05:04:45;101573.38;;;11.29;100.00
84308;BME280;74486;52.070;5.128;2024-02-15T05:07:11;101574.44;;;11.33;100.00
84308;BME280;74486;52.070;5.128;2024-02-15T05:09:36;101575.19;;;11.30;100.00
84308;BME280;74486;52.070;5.128;2024-02-15T05:12:02;101583.84;;;11.29;100.00
84308;BME280;74486;52.070;5.128;2024-02-15T05:14:28;101581.25;;;11.29;100.00
84308;BME280;74486;52.070;5.128;2024-02-15T05:16:55;101588.28;;;11.30;100.00
84308;BME280;74486;52.070;5.128;2024-02-15T05:19:20;101579.63;;;11.31;100.00
84308;BME280;74486;52.070;5.128;2024-02-15T05:21:46;101569.16;;;11.31;100.00
84308;BME280;74486;52.070;5.128;2024-02-15T05:24:12;101570.22;;;11.35;100.00
84308;BME280;74486;52.070;5.128;2024-02-15T05:26:38;101558.19;;;11.39;100.00
84308;BME280;74486;52.070;5.128;2024-02-15T05:29:04;101552.06;;;11.38;100.00
84308;BME280;74486;52.070;5.128;2024-02-15T05:31:30;101534.63;;;11.39;100.00
84308;BME280;74486;52.070;5.128;2024-02-15T05:33:57;101507.41;;;11.35;100.00
84308;BME280;74486;52.070;5.128;2024-02-15T05:36:22;101472.22;;;11.30;100.00
84308;BME280;74486;52.070;5.128;2024-02-15T05:38:50;101461.84;;;11.31;100.00
84308;BME280;74486;52.070;5.128;2024-02-15T05:41:16;101496.19;;;11.38;100.00
84308;BME280;74486;52.070;5.128;2024-02-15T05:43:42;101510.00;;;11.35;100.00
84308;BME280;74486;52.070;5.128;2024-02-15T05:46:08;101518.69;;;11.34;100.00
84308;BME280;74486;52.070;5.128;2024-02-15T05:48:34;101524.91;;;11.36;100.00
84308;BME280;74486;52.070;5.128;2024-02-15T05:51:01;101519.56;;;11.34;100.00
84308;BME280;74486;52.070;5.128;2024-02-15T05:53:26;101516.25;;;11.37;100.00
84308;BME280;74486;52.070;5.128;2024-02-15T05:55:52;101503.31;;;11.40;100.00
84308;BME280;74486;52.070;5.128;2024-02-15T05:58:18;101509.19;;;11.36;100.00
84308;BME280;74486;52.070;5.128;2024-02-15T06:00:44;101517.13;;;11.38;100.00
84308;BME280;74486;52.070;5.128;2024-02-15T06:03:09;101512.88;;;11.40;100.00
84308;BME280;74486;52.070;5.128;2024-02-15T06:05:35;101510.25;;;11.40;100.00
84308;BME280;74486;52.070;5.128;2024-02-15T06:08:02;101509.69;;;11.45;100.00
84308;BME280;74486;52.070;5.128;2024-02-15T06:10:28;101521.88;;;11.45;100.00
84308;BME280;74486;52.070;5.128;2024-02-15T06:12:53;101519.16;;;11.43;100.00
84308;BME280;74486;52.070;5.128;2024-02-15T06:15:19;101521.16;;;11.47;100.00
84308;BME280;74486;52.070;5.128;2024-02-15T06:17:44;101523.69;;;11.46;100.00
84308;BME280;74486;52.070;5.128;2024-02-15T06:20:11;101510.41;;;11.43;100.00
84308;BME280;74486;52.070;5.128;2024-02-15T06:22:37;101515.75;;;11.44;100.00
84308;BME280;74486;52.070;5.128;2024-02-15T06:25:05;101517.41;;;11.42;100.00
84308;BME280;74486;52.070;5.128;2024-02-15T06:27:31;101511.31;;;11.43;100.00
84308;BME280;74486;52.070;5.128;2024-02-15T06:29:56;101515.84;;;11.46;100.00
84308;BME280;74486;52.070;5.128;2024-02-15T06:32:22;101510.50;;;11.44;100.00
84308;BME280;74486;52.070;5.128;2024-02-15T06:34:47;101510.59;;;11.46;100.00
84308;BME280;74486;52.070;5.128;2024-02-15T06:37:36;101499.31;;;11.47;100.00
84308;BME280;74486;52.070;5.128;2024-02-15T06:40:02;101501.03;;;11.46;100.00
84308;BME280;74486;52.070;5.128;2024-02-15T06:42:28;101504.47;;;11.45;100.00
84308;BME280;74486;52.070;5.128;2024-02-15T06:44:54;101490.56;;;11.46;100.00
84308;BME280;74486;52.070;5.128;2024-02-15T06:47:19;101500.13;;;11.46;100.00
84308;BME280;74486;52.070;5.128;2024-02-15T06:49:45;101495.94;;;11.49;100.00
84308;BME280;74486;52.070;5.128;2024-02-15T06:52:11;101504.72;;;11.50;100.00
84308;BME280;74486;52.070;5.128;2024-02-15T06:54:37;101498.47;;;11.48;100.00
84308;BME280;74486;52.070;5.128;2024-02-15T06:57:03;101495.84;;;11.48;100.00
84308;BME280;74486;52.070;5.128;2024-02-15T06:59:30;101497.41;;;11.44;100.00
84308;BME280;74486;52.070;5.128;2024-02-15T07:01:55;101499.13;;;11.44;100.00
84308;BME280;74486;52.070;5.128;2024-02-15T07:04:21;101502.75;;;11.46;100.00
84308;BME280;74486;52.070;5.128;2024-02-15T07:06:47;101495.00;;;11.47;100.00
84308;BME280;74486;52.070;5.128;2024-02-15T07:09:13;101502.84;;;11.47;100.00
84308;BME280;74486;52.070;5.128;2024-02-15T07:11:38;101505.75;;;11.53;100.00
84308;BME280;74486;52.070;5.128;2024-02-15T07:14:04;101505.38;;;11.46;100.00
84308;BME280;74486;52.070;5.128;2024-02-15T07:16:31;101508.22;;;11.50;100.00
84308;BME280;74486;52.070;5.128;2024-02-15T07:18:56;101515.34;;;11.53;100.00
84308;BME280;74486;52.070;5.128;2024-02-15T07:21:22;101539.41;;;11.46;100.00
84308;BME280;74486;52.070;5.128;2024-02-15T07:23:47;101539.31;;;11.44;100.00
84308;BME280;74486;52.070;5.128;2024-02-15T07:26:13;101546.44;;;11.47;100.00
84308;BME280;74486;52.070;5.128;2024-02-15T07:28:39;101546.25;;;11.44;100.00
84308;BME280;74486;52.070;5.128;2024-02-15T07:31:04;101526.22;;;11.44;100.00
84308;BME280;74486;52.070;5.128;2024-02-15T07:33:31;101501.75;;;11.44;100.00
84308;BME280;74486;52.070;5.128;2024-02-15T07:35:56;101525.56;;;11.48;100.00
84308;BME280;74486;52.070;5.128;2024-02-15T07:38:22;101536.22;;;11.51;100.00
84308;BME280;74486;52.070;5.128;2024-02-15T07:40:48;101530.72;;;11.47;100.00
84308;BME280;74486;52.070;5.128;2024-02-15T07:43:13;101537.94;;;11.51;100.00
84308;BME280;74486;52.070;5.128;2024-02-15T07:45:39;101541.22;;;11.47;100.00
84308;BME280;74486;52.070;5.128;2024-02-15T07:48:04;101542.91;;;11.46;100.00
84308;BME280;74486;52.070;5.128;2024-02-15T07:50:31;101542.72;;;11.43;100.00
84308;BME280;74486;52.070;5.128;2024-02-15T07:52:57;101543.72;;;11.45;100.00
84308;BME280;74486;52.070;5.128;2024-02-15T07:55:22;101540.22;;;11.45;100.00
84308;BME280;74486;52.070;5.128;2024-02-15T07:57:48;101512.31;;;11.45;100.00
84308;BME280;74486;52.070;5.128;2024-02-15T08:00:14;101498.56;;;11.49;100.00
84308;BME280;74486;52.070;5.128;2024-02-15T08:02:39;101504.06;;;11.54;100.00
84308;BME280;74486;52.070;5.128;2024-02-15T08:05:05;101504.94;;;11.54;100.00
84308;BME280;74486;52.070;5.128;2024-02-15T08:07:32;101483.09;;;11.54;100.00
84308;BME280;74486;52.070;5.128;2024-02-15T08:09:57;101476.06;;;11.53;100.00
84308;BME280;74486;52.070;5.128;2024-02-15T08:12:23;101490.81;;;11.51;100.00
84308;BME280;74486;52.070;5.128;2024-02-15T08:14:48;101504.56;;;11.47;100.00
84308;BME280;74486;52.070;5.128;2024-02-15T08:17:13;101504.38;;;11.44;100.00
84308;BME280;74486;52.070;5.128;2024-02-15T08:19:40;101504.63;;;11.48;100.00
84308;BME280;74486;52.070;5.128;2024-02-15T08:22:05;101499.38;;;11.48;100.00
84308;BME280;74486;52.070;5.128;2024-02-15T08:24:32;101514.94;;;11.45;100.00
84308;BME280;74486;52.070;5.128;2024-02-15T08:26:58;101508.88;;;11.46;100.00
84308;BME280;74486;52.070;5.128;2024-02-15T08:29:23;101509.03;;;11.49;100.00
84308;BME280;74486;52.070;5.128;2024-02-15T08:31:49;101504.94;;;11.54;100.00
84308;BME280;74486;52.070;5.128;2024-02-15T08:34:14;101495.28;;;11.53;100.00
84308;BME280;74486;52.070;5.128;2024-02-15T08:36:40;101491.94;;;11.56;100.00
84308;BME280;74486;52.070;5.128;2024-02-15T08:39:05;101491.13;;;11.57;100.00
84308;BME280;74486;52.070;5.128;2024-02-15T08:41:32;101478.09;;;11.58;100.00
84308;BME280;74486;52.070;5.128;2024-02-15T08:43:57;101487.09;;;11.63;100.00
84308;BME280;74486;52.070;5.128;2024-02-15T08:46:23;101473.28;;;11.66;100.00
84308;BME280;74486;52.070;5.128;2024-02-15T08:48:48;101493.25;;;11.64;100.00
84308;BME280;74486;52.070;5.128;2024-02-15T08:51:14;101493.25;;;11.64;100.00
84308;BME280;74486;52.070;5.128;2024-02-15T08:53:39;101498.34;;;11.61;100.00
84308;BME280;74486;52.070;5.128;2024-02-15T08:56:05;101499.88;;;11.57;100.00
84308;BME280;74486;52.070;5.128;2024-02-15T08:58:32;101500.09;;;11.62;100.00
84308;BME280;74486;52.070;5.128;2024-02-15T09:00:57;101493.09;;;11.61;100.00
84308;BME280;74486;52.070;5.128;2024-02-15T09:03:23;101494.06;;;11.63;100.00
84308;BME280;74486;52.070;5.128;2024-02-15T09:05:48;101491.44;;;11.63;100.00
84308;BME280;74486;52.070;5.128;2024-02-15T09:08:14;101489.81;;;11.65;100.00
84308;BME280;74486;52.070;5.128;2024-02-15T09:10:39;101495.16;;;11.66;100.00
84308;BME280;74486;52.070;5.128;2024-02-15T09:13:05;101490.06;;;11.69;100.00
84308;BME280;74486;52.070;5.128;2024-02-15T09:15:32;101488.72;;;11.76;100.00
84308;BME280;74486;52.070;5.128;2024-02-15T09:17:57;101492.06;;;11.73;100.00
84308;BME280;74486;52.070;5.128;2024-02-15T09:20:23;101485.34;;;11.79;100.00
84308;BME280;74486;52.070;5.128;2024-02-15T09:22:50;101493.09;;;11.77;100.00
84308;BME280;74486;52.070;5.128;2024-02-15T09:25:16;101496.81;;;11.81;100.00
84308;BME280;74486;52.070;5.128;2024-02-15T09:27:42;101494.19;;;11.81;100.00
84308;BME280;74486;52.070;5.128;2024-02-15T09:30:08;101505.72;;;11.84;100.00
84308;BME280;74486;52.070;5.128;2024-02-15T09:32:35;101496.06;;;11.83;100.00
84308;BME280;74486;52.070;5.128;2024-02-15T09:35:01;101491.81;;;11.85;100.00
84308;BME280;74486;52.070;5.128;2024-02-15T09:37:27;101498.09;;;11.89;100.00
84308;BME280;74486;52.070;5.128;2024-02-15T09:39:52;101492.63;;;11.84;100.00
84308;BME280;74486;52.070;5.128;2024-02-15T09:42:18;101494.72;;;11.91;100.00
84308;BME280;74486;52.070;5.128;2024-02-15T09:44:43;101488.59;;;11.91;100.00
84308;BME280;74486;52.070;5.128;2024-02-15T09:47:09;101479.75;;;11.89;100.00
84308;BME280;74486;52.070;5.128;2024-02-15T09:49:39;101487.09;;;11.96;100.00
84308;BME280;74486;52.070;5.128;2024-02-15T09:52:06;101482.75;;;11.96;100.00
84308;BME280;74486;52.070;5.128;2024-02-15T09:54:33;101491.94;;;12.04;100.00
84308;BME280;74486;52.070;5.128;2024-02-15T09:57:01;101490.50;;;12.11;100.00
84308;BME280;74486;52.070;5.128;2024-02-15T09:59:27;101486.16;;;12.11;100.00
84308;BME280;74486;52.070;5.128;2024-02-15T10:01:54;101494.94;;;12.12;100.00
84308;BME280;74486;52.070;5.128;2024-02-15T10:04:23;101488.34;;;12.20;100.00
84308;BME280;74486;52.070;5.128;2024-02-15T10:06:50;101488.63;;;12.25;100.00
84308;BME280;74486;52.070;5.128;2024-02-15T10:09:26;101487.09;;;12.30;100.00
84308;BME280;74486;52.070;5.128;2024-02-15T10:11:54;101489.44;;;12.24;100.00
84308;BME280;74486;52.070;5.128;2024-02-15T10:14:19;101501.63;;;12.23;100.00
84308;BME280;74486;52.070;5.128;2024-02-15T10:16:45;101500.88;;;12.26;100.00
84308;BME280;74486;52.070;5.128;2024-02-15T10:19:10;101502.09;;;12.32;100.00
84308;BME280;74486;52.070;5.128;2024-02-15T10:21:36;101501.28;;;12.33;100.00
84308;BME280;74486;52.070;5.128;2024-02-15T10:24:06;101495.13;;;12.33;100.00
84308;BME280;74486;52.070;5.128;2024-02-15T10:26:32;101507.44;;;12.34;100.00
84308;BME280;74486;52.070;5.128;2024-02-15T10:29:08;101502.56;;;12.41;100.00
84308;BME280;74486;52.070;5.128;2024-02-15T10:31:34;101495.13;;;12.50;100.00
84308;BME280;74486;52.070;5.128;2024-02-15T10:34:03;101491.84;;;12.54;100.00
84308;BME280;74486;52.070;5.128;2024-02-15T10:36:29;101490.44;;;12.61;100.00
84308;BME280;74486;52.070;5.128;2024-02-15T10:39:11;101484.72;;;12.52;100.00
84308;BME280;74486;52.070;5.128;2024-02-15T10:41:37;101491.34;;;12.61;100.00
84308;BME280;74486;52.070;5.128;2024-02-15T10:44:03;101487.34;;;12.70;100.00
84308;BME280;74486;52.070;5.128;2024-02-15T10:46:29;101477.97;;;12.75;100.00
84308;BME280;74486;52.070;5.128;2024-02-15T10:48:55;101470.41;;;12.81;100.00
84308;BME280;74486;52.070;5.128;2024-02-15T10:51:21;101479.00;;;12.78;100.00
84308;BME280;74486;52.070;5.128;2024-02-15T10:53:48;101480.13;;;12.83;100.00
84308;BME280;74486;52.070;5.128;2024-02-15T10:56:21;101483.63;;;12.82;100.00
84308;BME280;74486;52.070;5.128;2024-02-15T10:58:55;101477.28;;;12.79;100.00
84308;BME280;74486;52.070;5.128;2024-02-15T11:01:25;101483.44;;;12.79;100.00
84308;BME280;74486;52.070;5.128;2024-02-15T11:03:59;101481.63;;;12.78;100.00
84308;BME280;74486;52.070;5.128;2024-02-15T11:06:27;101478.06;;;12.76;100.00
84308;BME280;74486;52.070;5.128;2024-02-15T11:08:52;101478.28;;;12.81;100.00
84308;BME280;74486;52.070;5.128;2024-02-15T11:11:20;101480.22;;;12.85;100.00
84308;BME280;74486;52.070;5.128;2024-02-15T11:13:46;101479.19;;;12.81;100.00
84308;BME280;74486;52.070;5.128;2024-02-15T11:16:41;101477.72;;;12.88;100.00
84308;BME280;74486;52.070;5.128;2024-02-15T11:19:06;101475.88;;;12.85;100.00
84308;BME280;74486;52.070;5.128;2024-02-15T11:21:53;101471.97;;;12.95;100.00
84308;BME280;74486;52.070;5.128;2024-02-15T11:24:25;101466.94;;;12.99;100.00
84308;BME280;74486;52.070;5.128;2024-02-15T11:26:57;101460.94;;;13.02;100.00
84308;BME280;74486;52.070;5.128;2024-02-15T11:29:48;101464.81;;;13.10;100.00
84308;BME280;74486;52.070;5.128;2024-02-15T11:32:34;101467.56;;;13.12;100.00
84308;BME280;74486;52.070;5.128;2024-02-15T11:35:03;101461.53;;;13.14;100.00
84308;BME280;74486;52.070;5.128;2024-02-15T11:37:51;101457.75;;;13.09;100.00
84308;BME280;74486;52.070;5.128;2024-02-15T11:40:17;101456.19;;;13.13;100.00
84308;BME280;74486;52.070;5.128;2024-02-15T11:42:44;101454.47;;;13.13;100.00
84308;BME280;74486;52.070;5.128;2024-02-15T11:45:11;101447.94;;;13.23;100.00
84308;BME280;74486;52.070;5.128;2024-02-15T11:47:38;101441.03;;;13.25;100.00
84308;BME280;74486;52.070;5.128;2024-02-15T11:50:05;101434.47;;;13.34;100.00
84308;BME280;74486;52.070;5.128;2024-02-15T11:52:32;101434.09;;;13.46;100.00
84308;BME280;74486;52.070;5.128;2024-02-15T11:55:04;101430.25;;;13.57;100.00
84308;BME280;74486;52.070;5.128;2024-02-15T11:57:30;101430.53;;;13.63;100.00
84308;BME280;74486;52.070;5.128;2024-02-15T11:59:56;101427.13;;;13.66;100.00
84308;BME280;74486;52.070;5.128;2024-02-15T12:02:22;101422.47;;;13.79;100.00
84308;BME280;74486;52.070;5.128;2024-02-15T12:04:48;101416.94;;;14.13;100.00
84308;BME280;74486;52.070;5.128;2024-02-15T12:07:13;101411.97;;;14.21;100.00
84308;BME280;74486;52.070;5.128;2024-02-15T12:09:39;101404.66;;;14.14;100.00
84308;BME280;74486;52.070;5.128;2024-02-15T12:12:04;101404.53;;;14.31;100.00
84308;BME280;74486;52.070;5.128;2024-02-15T12:14:30;101397.88;;;14.40;100.00
84308;BME280;74486;52.070;5.128;2024-02-15T12:17:01;101402.22;;;14.39;100.00
84308;BME280;74486;52.070;5.128;2024-02-15T12:19:27;101396.69;;;14.33;100.00
84308;BME280;74486;52.070;5.128;2024-02-15T12:21:53;101396.69;;;14.33;100.00
84308;BME280;74486;52.070;5.128;2024-02-15T12:24:20;101393.81;;;14.48;100.00
84308;BME280;74486;52.070;5.128;2024-02-15T12:26:47;101389.41;;;14.69;100.00
84308;BME280;74486;52.070;5.128;2024-02-15T12:29:16;101389.31;;;14.66;100.00
84308;BME280;74486;52.070;5.128;2024-02-15T12:31:43;101379.97;;;14.74;100.00
84308;BME280;74486;52.070;5.128;2024-02-15T12:34:10;101380.47;;;15.34;100.00
84308;BME280;74486;52.070;5.128;2024-02-15T12:36:36;101384.88;;;15.82;100.00